createdAt,value
2023-01-10T00:02:18.349Z,61.49
2023-01-10T00:05:04.478Z,61.92
2023-01-10T00:07:51.679Z,61.98
2023-01-10T00:10:37.437Z,62.17
2023-01-10T00:13:23.398Z,62.58
2023-01-10T00:16:09.559Z,63.40
2023-01-10T00:18:55.679Z,63.14
2023-01-10T00:21:41.399Z,63.68
2023-01-10T00:24:27.067Z,62.72
2023-01-10T00:27:12.976Z,63.13
2023-01-10T00:30:01.553Z,63.18
2023-01-10T00:32:47.396Z,63.53
2023-01-10T00:35:33.312Z,63.82
2023-01-10T00:38:19.297Z,63.42
2023-01-10T00:41:25.225Z,63.61
2023-01-10T00:44:10.922Z,63.67
2023-01-10T00:46:56.851Z,63.51
2023-01-10T00:49:42.991Z,63.91
2023-01-10T00:52:29.095Z,64.24
2023-01-10T00:55:14.791Z,63.67
2023-01-10T00:58:00.815Z,64.32
2023-01-10T01:00:47.041Z,64.20
2023-01-10T01:03:33.042Z,64.76
2023-01-10T01:06:18.884Z,63.99
2023-01-10T01:09:04.591Z,64.32
2023-01-10T01:11:50.328Z,64.56
2023-01-10T01:14:36.106Z,63.99
2023-01-10T01:17:21.746Z,63.65
2023-01-10T01:20:08.301Z,63.73
2023-01-10T01:22:54.594Z,63.53
2023-01-10T01:25:41.078Z,64.08
2023-01-10T01:28:26.867Z,63.98
2023-01-10T01:31:15.367Z,63.90
2023-01-10T01:34:01.264Z,63.93
2023-01-10T01:36:47.407Z,63.53
2023-01-10T01:39:33.303Z,63.47
2023-01-10T01:42:27.077Z,63.54
2023-01-10T01:45:24.939Z,64.15
2023-01-10T01:48:18.497Z,63.47
2023-01-10T01:51:14.959Z,63.06
2023-01-10T01:54:12.119Z,62.87
2023-01-10T01:57:04.298Z,62.94
2023-01-10T01:59:52.971Z,62.51
2023-01-10T02:03:01.284Z,62.68
2023-01-10T02:05:47.769Z,62.47
2023-01-10T02:08:33.956Z,62.72
2023-01-10T02:11:21.013Z,62.22
2023-01-10T02:14:08.969Z,62.31
2023-01-10T02:16:54.604Z,62.30
2023-01-10T02:19:43.370Z,62.21
2023-01-10T02:23:05.694Z,62.37
2023-01-10T02:26:04.069Z,62.40
2023-01-10T02:28:49.893Z,62.19
2023-01-10T02:31:50.738Z,61.97
2023-01-10T02:34:45.636Z,62.33
2023-01-10T02:37:53.524Z,62.18
2023-01-10T02:41:15.658Z,62.10
2023-01-10T02:44:32.072Z,62.35
2023-01-10T02:47:19.147Z,62.00
2023-01-10T02:50:37.342Z,62.02
2023-01-10T02:53:28.956Z,62.53
2023-01-10T02:57:09.694Z,61.61
2023-01-10T03:00:13.815Z,61.59
2023-01-10T03:03:12.179Z,62.78
2023-01-10T03:06:07.935Z,61.89
2023-01-10T03:09:03.671Z,62.22
2023-01-10T03:11:52.083Z,61.65
2023-01-10T03:14:38.593Z,61.87
2023-01-10T03:17:24.760Z,62.04
2023-01-10T03:20:11.537Z,62.05
2023-01-10T03:22:57.643Z,62.56
2023-01-10T03:25:48.176Z,61.65
2023-01-10T03:28:46.299Z,62.14
2023-01-10T03:31:40.702Z,62.28
2023-01-10T03:34:26.761Z,62.48
2023-01-10T03:37:37.106Z,62.12
2023-01-10T03:40:30.524Z,62.04
2023-01-10T03:43:41.898Z,62.06
2023-01-10T03:46:54.781Z,62.45
2023-01-10T03:49:43.516Z,62.26
2023-01-10T03:52:29.951Z,62.26
2023-01-10T03:55:22.502Z,61.98
2023-01-10T03:58:08.557Z,62.20
2023-01-10T04:00:54.244Z,62.27
2023-01-10T04:03:43.112Z,61.92
2023-01-10T04:06:28.993Z,62.17
2023-01-10T04:09:15.620Z,62.07
2023-01-10T04:12:01.318Z,62.43
2023-01-10T04:14:47.271Z,62.49
2023-01-10T04:17:33.182Z,62.71
2023-01-10T04:20:18.781Z,62.25
2023-01-10T04:23:04.555Z,62.20
2023-01-10T04:25:50.193Z,62.25
2023-01-10T04:28:35.806Z,62.55
2023-01-10T04:31:22.906Z,62.33
2023-01-10T04:34:09.437Z,62.53
2023-01-10T04:36:55.349Z,62.11
2023-01-10T04:39:40.955Z,62.02
2023-01-10T04:42:26.635Z,62.30
2023-01-10T04:45:13.693Z,61.88
2023-01-10T04:48:00.226Z,62.02
2023-01-10T04:50:50.875Z,62.20
2023-01-10T04:53:36.689Z,62.17
2023-01-10T04:56:23.627Z,62.29
2023-01-10T04:59:10.478Z,61.97
2023-01-10T05:01:57.598Z,62.21
2023-01-10T05:04:43.513Z,62.12
2023-01-10T05:07:29.165Z,62.25
2023-01-10T05:10:15.146Z,62.04
2023-01-10T05:13:01.015Z,62.63
2023-01-10T05:15:46.840Z,62.06
2023-01-10T05:18:32.561Z,62.23
2023-01-10T05:21:18.494Z,61.75
2023-01-10T05:24:04.587Z,61.85
2023-01-10T05:26:50.435Z,62.24
2023-01-10T05:29:36.196Z,61.78
2023-01-10T05:32:22.072Z,61.93
2023-01-10T05:35:07.972Z,61.60
2023-01-10T05:37:54.174Z,61.69
2023-01-10T05:40:39.760Z,61.87
2023-01-10T05:43:26.342Z,61.83
2023-01-10T05:46:12.031Z,61.60
2023-01-10T05:48:57.666Z,61.65
2023-01-10T05:51:43.402Z,61.77
2023-01-10T05:54:29.847Z,62.04
2023-01-10T05:57:15.892Z,61.54
2023-01-10T06:00:04.860Z,61.65
2023-01-10T06:02:57.777Z,62.38
2023-01-10T06:05:43.460Z,61.76
2023-01-10T06:08:29.259Z,62.07
2023-01-10T06:11:15.213Z,61.96
2023-01-10T06:14:01.096Z,62.16
2023-01-10T06:16:47.274Z,62.18
2023-01-10T06:19:32.942Z,62.04
2023-01-10T06:22:18.582Z,61.61
2023-01-10T06:25:04.739Z,62.01
2023-01-10T06:27:50.784Z,61.98
2023-01-10T06:30:36.703Z,61.54
2023-01-10T06:33:22.612Z,61.99
2023-01-10T06:36:08.619Z,61.32
2023-01-10T06:38:54.335Z,61.65
2023-01-10T06:41:40.014Z,62.17
2023-01-10T06:44:25.718Z,62.15
2023-01-10T06:47:11.739Z,61.97
2023-01-10T06:49:58.103Z,62.10
2023-01-10T06:52:43.640Z,61.89
2023-01-10T06:55:29.960Z,62.27
2023-01-10T06:58:18.489Z,61.98
2023-01-10T07:01:12.903Z,61.98
2023-01-10T07:03:59.074Z,62.00
2023-01-10T07:06:45.673Z,61.41
2023-01-10T07:09:31.436Z,61.56
2023-01-10T07:12:17.024Z,62.13
2023-01-10T07:15:02.613Z,61.51
2023-01-10T07:17:48.405Z,61.31
2023-01-10T07:20:34.039Z,61.90
2023-01-10T07:23:19.698Z,61.79
2023-01-10T07:26:10.255Z,61.50
2023-01-10T07:28:56.110Z,61.70
2023-01-10T07:31:41.905Z,61.69
2023-01-10T07:34:27.780Z,61.49
2023-01-10T07:37:13.350Z,61.70
2023-01-10T07:39:59.145Z,61.57
2023-01-10T07:42:44.832Z,61.85
2023-01-10T07:45:31.116Z,62.04
2023-01-10T07:48:16.889Z,61.63
2023-01-10T07:51:03.303Z,61.45
2023-01-10T07:53:49.350Z,61.25
2023-01-10T07:56:35.157Z,61.77
2023-01-10T07:59:24.040Z,61.61
2023-01-10T08:02:11.133Z,61.68
2023-01-10T08:04:56.791Z,61.64
2023-01-10T08:07:42.653Z,61.22
2023-01-10T08:10:28.350Z,61.51
2023-01-10T08:13:18.887Z,61.92
2023-01-10T08:16:06.679Z,61.82
2023-01-10T08:18:52.639Z,61.42
2023-01-10T08:21:38.327Z,62.19
2023-01-10T08:24:23.801Z,62.13
2023-01-10T08:27:09.755Z,61.73
2023-01-10T08:29:55.698Z,62.00
2023-01-10T08:32:41.333Z,62.09
2023-01-10T08:35:27.165Z,62.26
2023-01-10T08:38:13.226Z,61.78
2023-01-10T08:40:59.246Z,62.30
2023-01-10T08:43:44.856Z,61.58
2023-01-10T08:46:30.619Z,61.86
2023-01-10T08:49:16.625Z,61.64
2023-01-10T08:52:02.691Z,61.49
2023-01-10T08:54:48.471Z,61.96
2023-01-10T08:57:34.625Z,61.42
2023-01-10T09:00:24.096Z,61.67
2023-01-10T09:03:22.085Z,61.49
2023-01-10T09:06:08.698Z,61.54
2023-01-10T09:08:54.174Z,61.47
2023-01-10T09:11:41.877Z,61.94
2023-01-10T09:14:28.093Z,61.73
2023-01-10T09:17:13.880Z,61.66
2023-01-10T09:20:00.168Z,61.51
2023-01-10T09:22:46.096Z,61.55
2023-01-10T09:25:31.630Z,61.12
2023-01-10T09:28:18.306Z,61.44
2023-01-10T09:31:04.610Z,61.29
2023-01-10T09:33:50.434Z,61.40
2023-01-10T09:36:36.248Z,61.50
2023-01-10T09:39:22.044Z,61.36
2023-01-10T09:42:29.135Z,61.46
2023-01-10T09:45:22.175Z,61.34
2023-01-10T09:48:25.047Z,61.71
2023-01-10T09:51:39.718Z,61.61
2023-01-10T09:54:28.894Z,61.04
2023-01-10T09:57:18.863Z,61.21
2023-01-10T10:00:18.381Z,61.83
2023-01-10T10:03:22.065Z,61.62
2023-01-10T10:06:12.760Z,61.10
2023-01-10T10:08:58.649Z,61.38
2023-01-10T10:12:16.550Z,61.26
2023-01-10T10:15:32.762Z,61.77
2023-01-10T10:18:28.516Z,61.88
2023-01-10T10:21:38.934Z,61.79
2023-01-10T10:24:52.588Z,61.26
2023-01-10T10:27:59.484Z,61.55
2023-01-10T10:30:51.445Z,61.68
2023-01-10T10:34:03.606Z,61.67
2023-01-10T10:37:15.867Z,61.42
2023-01-10T10:40:30.425Z,61.98
2023-01-10T10:43:21.765Z,61.41
2023-01-10T10:46:09.994Z,61.40
2023-01-10T10:49:02.120Z,61.45
2023-01-10T10:51:52.555Z,61.48
2023-01-10T10:54:38.545Z,61.40
2023-01-10T10:57:27.321Z,61.25
2023-01-10T11:00:18.821Z,61.17
2023-01-10T11:03:11.168Z,61.38
2023-01-10T11:05:57.606Z,61.18
2023-01-10T11:08:45.784Z,60.94
2023-01-10T11:11:39.083Z,61.35
2023-01-10T11:14:55.344Z,61.09
2023-01-10T11:17:41.577Z,61.27
2023-01-10T11:20:27.282Z,61.49
2023-01-10T11:23:44.074Z,61.19
2023-01-10T11:26:39.288Z,61.22
2023-01-10T11:29:39.169Z,61.21
2023-01-10T11:32:36.215Z,60.89
2023-01-10T11:35:29.616Z,60.48
2023-01-10T11:38:22.062Z,60.40
2023-01-10T11:41:34.666Z,60.10
2023-01-10T11:44:26.362Z,60.18
2023-01-10T11:47:14.945Z,60.24
2023-01-10T11:50:02.473Z,60.45
2023-01-10T11:52:49.274Z,59.90
2023-01-10T11:55:37.035Z,60.00
2023-01-10T11:58:22.962Z,60.20
2023-01-10T12:01:29.700Z,60.68
2023-01-10T12:04:17.080Z,60.30
2023-01-10T12:07:09.541Z,59.74
2023-01-10T12:09:58.278Z,59.72
2023-01-10T12:12:57.250Z,59.61
2023-01-10T12:15:43.402Z,60.06
2023-01-10T12:18:31.467Z,60.11
2023-01-10T12:21:22.255Z,60.76
2023-01-10T12:24:25.301Z,59.92
2023-01-10T12:27:13.613Z,60.51
2023-01-10T12:30:01.765Z,60.78
2023-01-10T12:32:54.535Z,60.03
2023-01-10T12:35:45.455Z,60.51
2023-01-10T12:39:11.354Z,60.32
2023-01-10T12:42:36.897Z,60.50
2023-01-10T12:45:27.068Z,60.72
2023-01-10T12:48:17.873Z,60.41
2023-01-10T12:51:08.292Z,60.66
2023-01-10T12:53:56.843Z,60.78
2023-01-10T12:56:43.702Z,60.84
2023-01-10T12:59:39.534Z,61.24
2023-01-10T13:02:27.275Z,61.52
2023-01-10T13:05:25.464Z,61.10
2023-01-10T13:08:13.771Z,61.28
2023-01-10T13:11:00.622Z,61.38
2023-01-10T13:13:52.400Z,61.41
2023-01-10T13:16:58.846Z,61.31
2023-01-10T13:20:25.284Z,61.24
2023-01-10T13:23:30.639Z,61.36
2023-01-10T13:26:16.649Z,61.17
2023-01-10T13:29:03.985Z,61.44
2023-01-10T13:31:51.173Z,61.08
2023-01-10T13:34:36.886Z,60.85
2023-01-10T13:37:25.069Z,60.75
2023-01-10T13:40:24.493Z,61.10
2023-01-10T13:43:35.177Z,60.80
2023-01-10T13:46:21.285Z,60.77
2023-01-10T13:49:10.167Z,60.76
2023-01-10T13:52:31.717Z,60.35
2023-01-10T13:55:34.638Z,60.42
2023-01-10T13:58:43.647Z,60.27
2023-01-10T14:01:54.461Z,60.50
2023-01-10T14:04:47.486Z,59.89
2023-01-10T14:07:55.030Z,60.41
2023-01-10T14:10:40.770Z,59.81
2023-01-10T14:13:26.555Z,59.86
2023-01-10T14:16:34.567Z,59.99
2023-01-10T14:19:28.671Z,60.47
2023-01-10T14:22:29.513Z,59.72
2023-01-10T14:25:21.347Z,60.11
2023-01-10T14:28:28.927Z,60.03
2023-01-10T14:31:23.729Z,59.56
2023-01-10T14:34:11.889Z,59.78
2023-01-10T14:37:16.979Z,59.06
2023-01-10T14:40:15.823Z,59.52
2023-01-10T14:43:03.728Z,59.30
2023-01-10T14:46:03.926Z,59.74
2023-01-10T14:48:53.769Z,59.46
2023-01-10T14:51:39.819Z,59.38
2023-01-10T14:54:29.502Z,59.72
2023-01-10T14:57:21.928Z,59.36
2023-01-10T15:00:12.011Z,59.52
2023-01-10T15:02:59.729Z,59.40
2023-01-10T15:05:48.196Z,59.49
2023-01-10T15:08:34.162Z,58.88
2023-01-10T15:11:21.785Z,59.07
2023-01-10T15:14:10.995Z,59.07
2023-01-10T15:17:02.168Z,58.71
2023-01-10T15:19:53.773Z,59.05
2023-01-10T15:22:39.748Z,59.04
2023-01-10T15:25:29.992Z,58.72
2023-01-10T15:28:17.778Z,59.14
2023-01-10T15:31:05.455Z,58.82
2023-01-10T15:33:56.702Z,58.68
2023-01-10T15:37:06.578Z,58.56
2023-01-10T15:39:54.119Z,58.71
2023-01-10T15:42:40.220Z,58.94
2023-01-10T15:45:47.215Z,59.10
2023-01-10T15:48:40.156Z,58.81
2023-01-10T15:51:38.824Z,58.82
2023-01-10T15:54:24.493Z,58.86
2023-01-10T15:57:41.138Z,58.42
2023-01-10T16:00:27.554Z,58.55
2023-01-10T16:03:27.698Z,58.40
2023-01-10T16:06:25.543Z,58.12
2023-01-10T16:09:20.395Z,58.00
2023-01-10T16:12:31.161Z,58.85
2023-01-10T16:15:39.320Z,58.56
2023-01-10T16:18:25.631Z,58.66
2023-01-10T16:21:14.328Z,58.50
2023-01-10T16:24:04.864Z,58.54
2023-01-10T16:26:51.341Z,58.59
2023-01-10T16:29:37.992Z,58.50
2023-01-10T16:32:23.829Z,58.51
2023-01-10T16:35:09.902Z,58.43
2023-01-10T16:37:57.666Z,58.06
2023-01-10T16:40:48.835Z,58.20
2023-01-10T16:43:34.665Z,58.47
2023-01-10T16:46:20.360Z,58.61
2023-01-10T16:49:07.784Z,58.10
2023-01-10T16:51:54.081Z,58.01
2023-01-10T16:54:39.690Z,58.14
2023-01-10T16:57:26.683Z,58.49
2023-01-10T17:00:16.052Z,58.07
2023-01-10T17:03:03.992Z,57.97
2023-01-10T17:05:50.599Z,57.86
2023-01-10T17:08:36.271Z,58.22
2023-01-10T17:11:25.283Z,58.31
2023-01-10T17:14:14.767Z,57.95
2023-01-10T17:17:03.168Z,58.43
2023-01-10T17:19:48.924Z,57.96
2023-01-10T17:22:34.685Z,57.80
2023-01-10T17:25:20.867Z,58.27
2023-01-10T17:28:06.331Z,58.29
2023-01-10T17:30:52.278Z,58.24
2023-01-10T17:33:38.179Z,58.10
2023-01-10T17:36:29.072Z,57.89
2023-01-10T17:39:15.151Z,57.88
2023-01-10T17:42:00.955Z,57.94
2023-01-10T17:44:46.635Z,57.91
2023-01-10T17:47:32.427Z,58.28
2023-01-10T17:50:18.325Z,57.93
2023-01-10T17:53:04.646Z,58.18
2023-01-10T17:55:51.095Z,58.04
2023-01-10T17:58:37.078Z,57.89
2023-01-10T18:01:25.729Z,57.99
2023-01-10T18:04:12.908Z,57.76
2023-01-10T18:06:58.812Z,57.72
2023-01-10T18:09:44.541Z,58.04
2023-01-10T18:12:30.351Z,58.08
2023-01-10T18:15:16.024Z,58.13
2023-01-10T18:18:01.678Z,57.91
2023-01-10T18:20:47.414Z,57.63
2023-01-10T18:23:33.904Z,57.87
2023-01-10T18:26:20.849Z,58.41
2023-01-10T18:29:06.994Z,57.51
2023-01-10T18:31:53.643Z,57.59
2023-01-10T18:34:39.704Z,57.48
2023-01-10T18:37:25.448Z,57.64
2023-01-10T18:40:12.205Z,57.73
2023-01-10T18:42:59.085Z,57.48
2023-01-10T18:46:01.737Z,57.74
2023-01-10T18:49:00.284Z,57.36
2023-01-10T18:51:47.037Z,57.64
2023-01-10T18:54:32.945Z,57.46
2023-01-10T18:57:19.466Z,56.92
2023-01-10T19:00:11.075Z,57.56
2023-01-10T19:02:59.593Z,57.18
2023-01-10T19:05:45.407Z,57.54
2023-01-10T19:08:32.696Z,57.26
2023-01-10T19:11:22.042Z,57.61
2023-01-10T19:14:40.283Z,57.24
2023-01-10T19:17:27.860Z,57.29
2023-01-10T19:20:16.422Z,57.25
2023-01-10T19:23:09.711Z,57.05
2023-01-10T19:25:56.699Z,57.37
2023-01-10T19:28:43.851Z,57.22
2023-01-10T19:31:29.843Z,56.95
2023-01-10T19:34:16.623Z,57.44
2023-01-10T19:37:03.380Z,57.20
2023-01-10T19:39:49.510Z,56.88
2023-01-10T19:42:37.455Z,56.77
2023-01-10T19:45:23.042Z,57.00
2023-01-10T19:48:08.736Z,57.05
2023-01-10T19:50:54.834Z,57.14
2023-01-10T19:53:45.507Z,57.04
2023-01-10T19:56:37.654Z,56.47
2023-01-10T19:59:24.035Z,56.65
2023-01-10T20:02:13.186Z,56.82
2023-01-10T20:04:59.058Z,57.23
2023-01-10T20:07:49.243Z,57.23
2023-01-10T20:10:35.315Z,57.05
2023-01-10T20:13:21.314Z,56.39
2023-01-10T20:16:07.428Z,56.86
2023-01-10T20:18:53.614Z,56.71
2023-01-10T20:21:40.908Z,56.66
2023-01-10T20:24:27.240Z,56.50
2023-01-10T20:27:13.287Z,56.89
2023-01-10T20:29:59.067Z,56.92
2023-01-10T20:32:44.861Z,56.55
2023-01-10T20:35:30.541Z,56.57
2023-01-10T20:38:16.149Z,56.69
2023-01-10T20:41:07.978Z,56.64
2023-01-10T20:43:58.638Z,56.66
2023-01-10T20:46:44.570Z,56.74
2023-01-10T20:49:34.644Z,56.68
2023-01-10T20:52:20.383Z,56.47
2023-01-10T20:55:06.399Z,56.84
2023-01-10T20:57:52.578Z,56.69
2023-01-10T21:00:42.593Z,57.05
2023-01-10T21:03:29.385Z,56.64
2023-01-10T21:06:18.541Z,56.83
2023-01-10T21:09:37.330Z,56.90
2023-01-10T21:12:31.790Z,56.47
2023-01-10T21:15:18.799Z,56.68
2023-01-10T21:18:04.648Z,56.64
2023-01-10T21:20:54.593Z,56.68
2023-01-10T21:23:40.853Z,56.62
2023-01-10T21:26:26.871Z,56.50
2023-01-10T21:29:19.061Z,56.51
2023-01-10T21:32:06.232Z,56.42
2023-01-10T21:34:52.087Z,56.49
2023-01-10T21:37:37.696Z,56.91
2023-01-10T21:40:25.250Z,56.76
2023-01-10T21:43:11.293Z,56.45
2023-01-10T21:46:00.420Z,56.72
2023-01-10T21:48:46.539Z,56.68
2023-01-10T21:51:32.645Z,57.21
2023-01-10T21:54:18.313Z,57.22
2023-01-10T21:57:04.076Z,57.26
2023-01-10T21:59:50.908Z,57.07
2023-01-10T22:02:36.626Z,57.04
2023-01-10T22:05:22.374Z,56.85
2023-01-10T22:08:08.073Z,56.71
2023-01-10T22:10:53.676Z,56.91
2023-01-10T22:13:39.484Z,57.08
2023-01-10T22:16:25.349Z,56.92
2023-01-10T22:19:12.899Z,56.82
2023-01-10T22:21:58.542Z,57.14
2023-01-10T22:24:46.885Z,57.37
2023-01-10T22:27:32.636Z,57.18
2023-01-10T22:30:18.473Z,57.31
2023-01-10T22:33:04.266Z,57.33
2023-01-10T22:35:49.961Z,57.20
2023-01-10T22:38:35.698Z,57.16
2023-01-10T22:41:27.314Z,57.67
2023-01-10T22:44:19.093Z,57.95
2023-01-10T22:47:04.998Z,57.75
2023-01-10T22:49:51.970Z,57.75
2023-01-10T22:52:37.493Z,57.56
2023-01-10T22:55:23.194Z,57.92
2023-01-10T22:58:08.911Z,57.93
2023-01-10T23:00:54.683Z,57.69
2023-01-10T23:03:40.420Z,58.05
2023-01-10T23:06:26.165Z,57.74
2023-01-10T23:09:12.060Z,58.06
2023-01-10T23:11:58.017Z,57.59
2023-01-10T23:14:43.742Z,57.77
2023-01-10T23:17:29.585Z,58.10
2023-01-10T23:20:16.792Z,58.28
2023-01-10T23:23:02.463Z,58.03
2023-01-10T23:26:01.602Z,58.33
2023-01-10T23:28:49.844Z,58.67
2023-01-10T23:31:35.629Z,58.38
2023-01-10T23:34:21.294Z,58.44
2023-01-10T23:37:06.783Z,58.62
2023-01-10T23:39:52.475Z,58.90
2023-01-10T23:42:38.242Z,59.05
2023-01-10T23:45:34.287Z,58.92
2023-01-10T23:48:28.288Z,58.94
2023-01-10T23:51:24.922Z,58.70
2023-01-10T23:54:17.408Z,58.58
2023-01-10T23:57:03.551Z,58.85
